Terminal Aerodrome Forecast
Issued by NWS

Home | Current Version | Previous Version | Text Only | Print | Product List | Glossary On
Versions: 1 2 3 4 5 6 7 8 9 10 11 12 13 14 15 16 17 18
000
FTUS43 KGRB 200500
TAFATW
TAF
KATW 200520Z 2006/2106 20004KT 6SM BR BKN025
      TEMPO 2006/2008 SCT025
     FM201500 18004KT P6SM OVC018
     FM210100 VRB03KT 4SM BR OVC015=

USA.gov is the U.S. government's official web portal to all federal, state and local government web resources and services.